Time;durP1;ratioP1;P1;durP2;ratioP2;P2;SDS_P1;SDS_P2;PMS_P1;PMS_P2;Temp;Humidity;BMP_temperature;BMP_pressure;BME280_temperature;BME280_humidity;BME280_pressure;Samples;Min_cycle;Max_cycle;Signal;HPM_P1;HPM_P2
2024/01/09 00:01:09;;;;;;;22.98;12.50;;;-1.10;81.30;;;;;;5018027;28;20737;-61
2024/01/09 00:03:35;;;;;;;20.20;11.73;;;-1.10;81.30;;;;;;5016506;28;20641;-61
2024/01/09 00:06:00;;;;;;;25.30;12.85;;;-1.10;81.30;;;;;;5020275;28;20050;-60
2024/01/09 00:08:26;;;;;;;20.35;11.88;;;-1.10;81.30;;;;;;5019180;28;20045;-62
2024/01/09 00:10:51;;;;;;;21.50;12.27;;;-1.10;81.30;;;;;;5022767;28;20033;-61
2024/01/09 00:13:17;;;;;;;22.08;12.07;;;-1.10;81.30;;;;;;5016781;28;20498;-61
2024/01/09 00:15:43;;;;;;;23.90;12.75;;;-1.10;81.20;;;;;;5021812;28;20386;-59
2024/01/09 00:18:08;;;;;;;22.92;12.07;;;-1.10;81.10;;;;;;5019373;28;20476;-63
2024/01/09 00:20:34;;;;;;;21.90;12.32;;;-1.10;81.10;;;;;;5020230;28;20045;-61
2024/01/09 00:22:59;;;;;;;23.02;12.02;;;-1.20;81.10;;;;;;5021881;28;20029;-60
2024/01/09 00:25:25;;;;;;;20.35;12.35;;;-1.20;81.00;;;;;;5023451;28;20029;-63
2024/01/09 00:27:50;;;;;;;21.55;11.95;;;-1.20;81.00;;;;;;5019734;28;20494;-62
2024/01/09 00:30:16;;;;;;;22.45;12.57;;;-1.20;81.00;;;;;;5021556;28;20087;-60
2024/01/09 00:32:46;;;;;;;23.60;12.75;;;-1.20;81.10;;;;;;5022503;28;20045;-61
2024/01/09 00:35:14;;;;;;;21.08;12.10;;;-1.30;80.90;;;;;;5019950;28;20417;-60
2024/01/09 00:37:40;;;;;;;21.75;12.02;;;-1.30;81.10;;;;;;5017113;28;20419;-62
2024/01/09 00:40:07;;;;;;;23.70;12.40;;;-1.20;81.10;;;;;;5022139;28;20041;-61
2024/01/09 00:42:33;;;;;;;21.90;12.02;;;-1.20;81.20;;;;;;5024295;28;20067;-62
2024/01/09 00:45:00;;;;;;;21.13;12.18;;;-1.30;80.90;;;;;;5022001;28;20405;-61
2024/01/09 00:47:27;;;;;;;20.85;12.23;;;-1.30;80.90;;;;;;5028049;28;20030;-61
2024/01/09 00:49:53;;;;;;;25.05;12.60;;;-1.30;80.80;;;;;;5021720;28;20515;-62
2024/01/09 00:52:18;;;;;;;25.55;12.65;;;-1.30;80.70;;;;;;5026457;28;20124;-61
2024/01/09 00:54:45;;;;;;;24.80;12.27;;;-1.40;80.70;;;;;;5027427;28;20626;-61
2024/01/09 00:57:11;;;;;;;25.35;12.50;;;-1.40;80.70;;;;;;5024618;28;20034;-61
2024/01/09 00:59:37;;;;;;;26.88;12.05;;;-1.40;80.70;;;;;;5025772;28;20048;-61
2024/01/09 01:02:02;;;;;;;20.75;11.77;;;-1.40;80.70;;;;;;5023122;28;20111;-61
2024/01/09 01:04:28;;;;;;;22.55;12.68;;;-1.40;80.50;;;;;;5021788;28;20489;-62
2024/01/09 01:06:53;;;;;;;21.10;11.68;;;-1.40;80.50;;;;;;5024113;28;20392;-61
2024/01/09 01:09:19;;;;;;;21.65;11.98;;;-1.40;80.60;;;;;;5030163;28;20079;-61
2024/01/09 01:11:45;;;;;;;23.92;13.45;;;-1.40;80.50;;;;;;5028220;28;20040;-60
2024/01/09 01:14:11;;;;;;;22.65;12.02;;;-1.50;80.40;;;;;;5030169;28;20459;-61
2024/01/09 01:16:36;;;;;;;24.65;13.40;;;-1.50;80.70;;;;;;5030416;28;20034;-62
2024/01/09 01:19:02;;;;;;;22.75;12.40;;;-1.50;80.40;;;;;;5029935;28;20049;-63
2024/01/09 01:21:27;;;;;;;22.73;12.48;;;-1.50;80.40;;;;;;5021840;28;20034;-61
2024/01/09 01:23:53;;;;;;;24.05;12.95;;;-1.50;80.40;;;;;;5032665;28;20266;-61
2024/01/09 01:26:19;;;;;;;21.15;12.25;;;-1.50;80.40;;;;;;5033506;28;20053;-62
2024/01/09 01:28:44;;;;;;;23.45;12.68;;;-1.50;80.40;;;;;;5029312;28;20418;-59
2024/01/09 01:31:10;;;;;;;21.30;11.60;;;-1.60;80.40;;;;;;5029169;28;20113;-61
2024/01/09 01:33:36;;;;;;;22.98;12.52;;;-1.60;80.50;;;;;;5030341;28;20034;-59
2024/01/09 01:36:01;;;;;;;19.80;12.13;;;-1.60;80.60;;;;;;5026543;28;20088;-60
2024/01/09 01:38:27;;;;;;;23.67;12.52;;;-1.60;80.60;;;;;;5031245;28;20120;-61
2024/01/09 01:40:53;;;;;;;22.10;12.32;;;-1.60;80.50;;;;;;5024886;28;20339;-60
2024/01/09 01:43:19;;;;;;;24.33;13.07;;;-1.60;80.50;;;;;;5032137;28;20041;-61
2024/01/09 01:45:44;;;;;;;22.00;11.70;;;-1.60;80.40;;;;;;5028575;28;20056;-62
2024/01/09 01:48:10;;;;;;;22.65;11.85;;;-1.60;80.50;;;;;;5024718;28;20041;-60
2024/01/09 01:50:37;;;;;;;25.10;13.45;;;-1.60;80.40;;;;;;5026428;28;20030;-60
2024/01/09 01:53:06;;;;;;;23.77;12.27;;;-1.60;80.60;;;;;;5025974;28;20029;-61
2024/01/09 01:55:33;;;;;;;24.75;13.18;;;-1.70;80.40;;;;;;5021083;28;20099;-62
2024/01/09 01:57:59;;;;;;;25.40;12.80;;;-1.70;80.30;;;;;;5024399;28;20413;-60
2024/01/09 02:00:26;;;;;;;25.23;13.23;;;-1.70;80.10;;;;;;5019968;28;20599;-61
2024/01/09 02:02:53;;;;;;;24.23;12.43;;;-1.70;80.30;;;;;;5016617;28;20128;-61
2024/01/09 02:05:21;;;;;;;23.98;12.00;;;-1.70;80.40;;;;;;5021659;28;20405;-62
2024/01/09 02:07:49;;;;;;;22.55;12.95;;;-1.70;80.50;;;;;;5016294;28;20054;-60
2024/01/09 02:10:16;;;;;;;25.30;12.77;;;-1.70;80.30;;;;;;5028614;28;20033;-60
2024/01/09 02:12:42;;;;;;;23.13;12.43;;;-1.80;80.40;;;;;;5024249;28;20041;-60
2024/01/09 02:15:08;;;;;;;23.85;13.00;;;-1.80;80.20;;;;;;5022630;28;21294;-61
2024/01/09 02:17:33;;;;;;;26.25;13.27;;;-1.80;80.10;;;;;;5022163;28;20032;-62
2024/01/09 02:19:59;;;;;;;29.92;13.85;;;-1.80;80.10;;;;;;5025072;28;20116;-61
2024/01/09 02:22:25;;;;;;;25.30;13.07;;;-1.80;80.20;;;;;;5018176;28;20033;-61
2024/01/09 02:24:50;;;;;;;25.63;13.77;;;-1.80;80.30;;;;;;5025789;28;20033;-61
2024/01/09 02:27:35;;;;;;;27.92;13.10;;;-1.80;80.20;;;;;;5023124;28;20048;-61
2024/01/09 02:30:00;;;;;;;;;;;-1.80;80.10;;;;;;5022545;28;20055;-60
2024/01/09 02:32:26;;;;;;;25.73;12.35;;;-1.80;80.00;;;;;;5019070;28;19916;-61
2024/01/09 02:34:52;;;;;;;23.88;13.40;;;-1.80;80.30;;;;;;5019652;28;20029;-60
2024/01/09 02:37:18;;;;;;;26.23;13.13;;;-1.80;80.30;;;;;;5021558;28;20034;-63
2024/01/09 02:39:43;;;;;;;25.20;13.77;;;-1.80;80.20;;;;;;5024298;28;20056;-59
2024/01/09 02:42:09;;;;;;;24.13;13.50;;;-1.80;80.20;;;;;;5023168;28;20248;-61
2024/01/09 02:44:35;;;;;;;26.35;13.75;;;-1.80;80.20;;;;;;5021718;28;20088;-61
2024/01/09 02:47:00;;;;;;;26.08;14.70;;;-1.80;80.30;;;;;;5017796;28;20034;-61
2024/01/09 02:49:26;;;;;;;27.73;12.98;;;-1.80;80.10;;;;;;5018479;28;20109;-61
2024/01/09 02:51:52;;;;;;;27.08;13.13;;;-1.80;80.20;;;;;;5020578;28;20448;-61
2024/01/09 02:54:18;;;;;;;24.95;13.20;;;-1.80;79.90;;;;;;5024390;28;20540;-61
2024/01/09 02:56:44;;;;;;;24.88;12.98;;;-1.90;79.90;;;;;;5023652;28;20041;-62
2024/01/09 02:59:09;;;;;;;23.38;13.10;;;-1.80;80.00;;;;;;5020071;28;20037;-61
2024/01/09 03:01:35;;;;;;;29.38;13.52;;;-1.90;79.90;;;;;;5018000;28;20033;-61
2024/01/09 03:04:00;;;;;;;27.90;14.10;;;-1.90;79.70;;;;;;5022357;28;20047;-60
2024/01/09 03:06:26;;;;;;;28.52;14.10;;;-1.90;79.80;;;;;;5028457;28;20505;-61
2024/01/09 03:08:52;;;;;;;26.55;13.40;;;-1.90;79.50;;;;;;5029552;28;20065;-60
2024/01/09 03:11:18;;;;;;;27.75;14.35;;;-2.00;79.50;;;;;;5027314;28;20052;-60
2024/01/09 03:13:44;;;;;;;23.85;13.10;;;-2.00;79.70;;;;;;5025621;28;20026;-61
2024/01/09 03:16:14;;;;;;;24.60;13.45;;;-2.00;79.70;;;;;;5023523;28;20150;-61
2024/01/09 03:18:42;;;;;;;27.05;13.77;;;-2.00;79.70;;;;;;5028487;28;20029;-60
2024/01/09 03:21:10;;;;;;;26.58;13.93;;;-2.00;79.70;;;;;;5023579;28;20022;-60
2024/01/09 03:23:36;;;;;;;25.40;13.95;;;-2.10;79.70;;;;;;5031169;28;20060;-59
2024/01/09 03:26:03;;;;;;;25.33;13.27;;;-2.00;79.80;;;;;;5028426;28;20025;-60
2024/01/09 03:28:28;;;;;;;26.10;14.05;;;-2.00;79.90;;;;;;5026989;28;20091;-61
2024/01/09 03:30:54;;;;;;;25.15;13.40;;;-2.10;79.90;;;;;;5024066;28;20022;-61
2024/01/09 03:33:20;;;;;;;26.17;14.10;;;-2.00;80.00;;;;;;5016566;28;20041;-61
2024/01/09 03:35:45;;;;;;;24.15;13.15;;;-2.10;79.90;;;;;;5029227;28;20029;-60
2024/01/09 03:38:12;;;;;;;26.48;13.95;;;-2.00;79.80;;;;;;5024899;28;20088;-62
2024/01/09 03:40:37;;;;;;;24.65;13.00;;;-2.00;79.70;;;;;;5020522;28;20409;-62
2024/01/09 03:43:05;;;;;;;26.58;13.68;;;-2.10;79.70;;;;;;5027008;28;20041;-61
2024/01/09 03:45:32;;;;;;;26.85;13.77;;;-2.10;79.60;;;;;;5022513;28;20056;-61
2024/01/09 03:47:57;;;;;;;28.95;14.30;;;-2.10;79.60;;;;;;5029104;28;20041;-62
2024/01/09 03:50:23;;;;;;;27.20;14.40;;;-2.10;79.70;;;;;;5028203;28;20226;-61
2024/01/09 03:52:49;;;;;;;26.98;13.98;;;-2.10;79.70;;;;;;5029773;28;20034;-61
2024/01/09 03:55:15;;;;;;;27.33;14.40;;;-2.20;79.70;;;;;;5028105;28;20616;-61
2024/01/09 03:57:42;;;;;;;28.63;14.45;;;-2.10;79.80;;;;;;5024180;28;20389;-61
2024/01/09 04:00:08;;;;;;;28.88;14.80;;;-2.10;79.80;;;;;;5026267;28;20513;-61
2024/01/09 04:02:34;;;;;;;27.98;13.98;;;-2.20;79.70;;;;;;5028428;28;20049;-66
2024/01/09 04:04:59;;;;;;;26.98;13.85;;;-2.20;79.50;;;;;;5032473;28;20056;-60
2024/01/09 04:07:25;;;;;;;25.85;13.60;;;-2.20;79.40;;;;;;5023463;28;20045;-60
2024/01/09 04:09:51;;;;;;;25.98;13.05;;;-2.20;79.50;;;;;;5021511;28;20047;-61
2024/01/09 04:12:17;;;;;;;27.08;13.57;;;-2.20;79.60;;;;;;5023558;28;20095;-60
2024/01/09 04:14:42;;;;;;;27.40;14.00;;;-2.20;79.70;;;;;;5027745;28;20025;-60
2024/01/09 04:17:08;;;;;;;26.38;14.00;;;-2.20;79.70;;;;;;5028367;28;20061;-61
2024/01/09 04:19:37;;;;;;;27.55;14.20;;;-2.20;79.70;;;;;;5036440;28;20037;-60
2024/01/09 04:22:03;;;;;;;28.00;13.70;;;-2.30;79.60;;;;;;5034878;28;20057;-61
2024/01/09 04:24:28;;;;;;;29.63;14.23;;;-2.30;79.70;;;;;;5034839;28;20060;-62
2024/01/09 04:26:55;;;;;;;25.88;13.35;;;-2.20;79.80;;;;;;5031037;28;20052;-61
2024/01/09 04:29:20;;;;;;;26.42;14.30;;;-2.20;79.80;;;;;;5027729;28;20392;-61
2024/01/09 04:31:46;;;;;;;27.23;14.48;;;-2.30;79.60;;;;;;5026023;28;20056;-63
2024/01/09 04:34:11;;;;;;;25.63;13.57;;;-2.30;79.60;;;;;;5021634;28;20029;-61
2024/01/09 04:36:37;;;;;;;27.67;13.80;;;-2.30;79.70;;;;;;5022414;28;20064;-61
2024/01/09 04:39:02;;;;;;;29.25;14.32;;;-2.30;79.70;;;;;;5026942;28;20036;-61
2024/01/09 04:41:28;;;;;;;39.67;13.65;;;-2.30;79.70;;;;;;5022548;28;20475;-62
2024/01/09 04:43:54;;;;;;;28.42;14.52;;;-2.30;79.70;;;;;;5025628;28;20116;-61
2024/01/09 04:46:19;;;;;;;27.90;14.80;;;-2.30;79.50;;;;;;5026480;28;20037;-60
2024/01/09 04:48:45;;;;;;;28.02;14.80;;;-2.30;79.70;;;;;;5021480;28;20504;-60
2024/01/09 04:51:10;;;;;;;28.60;14.55;;;-2.30;79.80;;;;;;5027091;28;20449;-61
2024/01/09 04:53:36;;;;;;;27.40;13.70;;;-2.30;79.70;;;;;;5025863;28;20034;-61
2024/01/09 04:56:02;;;;;;;28.83;14.00;;;-2.30;79.60;;;;;;5025770;28;20497;-60
2024/01/09 04:58:28;;;;;;;25.60;13.82;;;-2.30;79.70;;;;;;5028913;28;20068;-59
2024/01/09 05:00:55;;;;;;;34.15;15.05;;;-2.30;79.80;;;;;;5019069;28;20038;-62
2024/01/09 05:03:20;;;;;;;30.15;14.32;;;-2.30;79.90;;;;;;5031496;28;20037;-60
2024/01/09 05:05:46;;;;;;;27.75;13.80;;;-2.30;79.70;;;;;;5023080;28;20490;-60
2024/01/09 05:08:12;;;;;;;31.90;15.18;;;-2.30;79.80;;;;;;5028258;28;20026;-61
2024/01/09 05:10:37;;;;;;;27.95;14.52;;;-2.30;79.80;;;;;;5026972;28;20033;-60
2024/01/09 05:13:03;;;;;;;28.08;14.98;;;-2.30;79.80;;;;;;5019806;28;20393;-61
2024/01/09 05:15:28;;;;;;;30.92;14.95;;;-2.30;79.70;;;;;;5027048;28;20518;-62
2024/01/09 05:17:54;;;;;;;29.63;15.10;;;-2.30;79.70;;;;;;5025771;28;20059;-62
2024/01/09 05:20:19;;;;;;;29.73;15.07;;;-2.30;79.60;;;;;;5022067;28;20041;-63
2024/01/09 05:22:45;;;;;;;30.15;15.00;;;-2.30;79.60;;;;;;5027352;28;20041;-61
2024/01/09 05:25:11;;;;;;;28.10;14.48;;;-2.30;79.70;;;;;;5022166;28;20033;-62
2024/01/09 05:27:36;;;;;;;30.67;15.25;;;-2.30;79.70;;;;;;5022548;28;20498;-62
2024/01/09 05:30:03;;;;;;;30.73;15.00;;;-2.30;79.70;;;;;;5014091;28;20039;-63
2024/01/09 05:32:28;;;;;;;29.08;14.82;;;-2.30;79.90;;;;;;5015129;28;20060;-63
2024/01/09 05:34:54;;;;;;;30.27;15.00;;;-2.30;80.00;;;;;;5021655;28;20033;-60
2024/01/09 05:37:20;;;;;;;32.38;16.17;;;-2.30;80.00;;;;;;5022166;28;20045;-63
2024/01/09 05:39:46;;;;;;;28.58;15.15;;;-2.40;79.90;;;;;;5023247;28;20045;-59
2024/01/09 05:42:12;;;;;;;32.17;16.30;;;-2.40;79.90;;;;;;5022147;28;20122;-63
2024/01/09 05:44:38;;;;;;;26.75;14.82;;;-2.30;79.90;;;;;;5018518;28;20042;-62
2024/01/09 05:47:04;;;;;;;31.65;15.68;;;-2.30;80.00;;;;;;5026496;28;20037;-63
2024/01/09 05:49:29;;;;;;;33.72;16.50;;;-2.30;80.00;;;;;;5027123;28;20453;-62
2024/01/09 05:51:55;;;;;;;30.13;15.38;;;-2.30;79.90;;;;;;5029791;28;20060;-62
2024/01/09 05:54:21;;;;;;;30.65;15.48;;;-2.30;79.90;;;;;;5031071;28;20080;-63
2024/01/09 05:56:46;;;;;;;29.30;16.25;;;-2.30;79.80;;;;;;5024788;28;20080;-61
2024/01/09 05:59:12;;;;;;;32.13;15.38;;;-2.30;79.70;;;;;;5027747;28;20087;-63
2024/01/09 06:01:38;;;;;;;29.27;15.27;;;-2.30;79.80;;;;;;5025883;28;20152;-61
2024/01/09 06:04:04;;;;;;;31.05;15.45;;;-2.40;79.70;;;;;;5028483;28;20128;-60
2024/01/09 06:06:29;;;;;;;31.25;15.23;;;-2.40;79.70;;;;;;5025833;28;20038;-62
2024/01/09 06:08:55;;;;;;;31.02;15.65;;;-2.40;79.90;;;;;;5025200;28;20535;-62
2024/01/09 06:11:21;;;;;;;31.98;15.75;;;-2.40;80.10;;;;;;5031753;28;20037;-62
2024/01/09 06:13:47;;;;;;;30.42;15.32;;;-2.40;80.20;;;;;;5021026;28;20033;-62
2024/01/09 06:16:12;;;;;;;30.65;15.98;;;-2.40;80.10;;;;;;5030032;28;20064;-61
2024/01/09 06:18:38;;;;;;;30.35;15.27;;;-2.40;80.10;;;;;;5028165;28;20454;-61
2024/01/09 06:21:04;;;;;;;30.75;16.00;;;-2.40;80.00;;;;;;5027622;28;20424;-60
2024/01/09 06:23:29;;;;;;;31.35;16.40;;;-2.40;80.00;;;;;;5027769;28;20043;-62
2024/01/09 06:25:55;;;;;;;35.47;17.10;;;-2.40;80.00;;;;;;5009977;28;20037;-61
2024/01/09 06:28:20;;;;;;;29.67;15.65;;;-2.40;79.90;;;;;;5017591;28;20033;-63
2024/01/09 06:30:46;;;;;;;33.83;16.48;;;-2.40;80.00;;;;;;5019976;28;20092;-63
2024/01/09 06:33:12;;;;;;;30.63;15.48;;;-2.40;80.00;;;;;;5014105;28;20037;-61
2024/01/09 06:35:37;;;;;;;29.98;15.40;;;-2.40;80.40;;;;;;5025616;28;20053;-63
2024/01/09 06:38:03;;;;;;;32.97;15.88;;;-2.40;80.20;;;;;;5024780;28;20037;-62
2024/01/09 06:40:29;;;;;;;31.80;16.20;;;-2.40;80.20;;;;;;5021719;28;20056;-60
2024/01/09 06:42:54;;;;;;;33.92;16.83;;;-2.40;80.10;;;;;;5022903;28;20080;-63
2024/01/09 06:45:20;;;;;;;33.75;16.27;;;-2.40;80.20;;;;;;5018823;28;20045;-61
2024/01/09 06:47:45;;;;;;;32.50;16.05;;;-2.30;80.20;;;;;;5025467;28;20034;-63
2024/01/09 06:50:11;;;;;;;31.98;16.52;;;-2.30;80.10;;;;;;5026213;28;20412;-60
2024/01/09 06:52:38;;;;;;;32.17;16.88;;;-2.30;80.00;;;;;;5024162;28;20747;-63
2024/01/09 06:55:04;;;;;;;31.85;16.13;;;-2.40;80.00;;;;;;5025929;28;20509;-62
2024/01/09 06:57:29;;;;;;;32.28;15.77;;;-2.40;80.00;;;;;;5023687;28;20266;-60
2024/01/09 06:59:55;;;;;;;32.58;16.75;;;-2.40;80.00;;;;;;5023060;28;20577;-62
2024/01/09 07:02:22;;;;;;;32.45;16.38;;;-2.40;80.00;;;;;;5026024;28;20517;-63
2024/01/09 07:04:47;;;;;;;32.17;16.48;;;-2.40;80.00;;;;;;5030145;28;20117;-63
2024/01/09 07:07:13;;;;;;;34.40;16.80;;;-2.40;80.10;;;;;;5028650;28;20037;-60
2024/01/09 07:09:40;;;;;;;33.05;16.23;;;-2.40;80.10;;;;;;5021459;28;20059;-62
2024/01/09 07:12:09;;;;;;;32.75;16.35;;;-2.40;80.00;;;;;;5033063;28;20038;-61
2024/01/09 07:14:35;;;;;;;33.70;17.10;;;-2.40;80.00;;;;;;5024350;28;20913;-63
2024/01/09 07:17:03;;;;;;;33.90;15.82;;;-2.30;80.10;;;;;;5026139;28;20040;-62
2024/01/09 07:19:28;;;;;;;35.58;16.88;;;-2.40;80.00;;;;;;5024121;28;20049;-63
2024/01/09 07:21:54;;;;;;;34.75;16.83;;;-2.40;80.20;;;;;;5025654;28;20083;-63
2024/01/09 07:24:20;;;;;;;36.35;17.48;;;-2.40;80.10;;;;;;5027400;28;20238;-63
2024/01/09 07:26:45;;;;;;;34.00;16.67;;;-2.40;80.00;;;;;;5025462;28;20050;-61
2024/01/09 07:29:16;;;;;;;35.15;17.90;;;-2.40;80.10;;;;;;5019244;28;20041;-62
2024/01/09 07:31:42;;;;;;;34.63;18.05;;;-2.40;80.00;;;;;;5022601;28;20033;-62
2024/01/09 07:34:07;;;;;;;37.03;17.33;;;-2.40;79.90;;;;;;5023115;28;20029;-62
2024/01/09 07:36:33;;;;;;;32.88;17.08;;;-2.40;80.00;;;;;;5029909;28;20517;-63
2024/01/09 07:38:59;;;;;;;38.78;17.33;;;-2.40;80.00;;;;;;5027343;28;20029;-63
2024/01/09 07:41:25;;;;;;;38.38;18.17;;;-2.40;80.00;;;;;;5026699;28;20057;-62
2024/01/09 07:43:50;;;;;;;32.40;16.48;;;-2.40;80.00;;;;;;5023045;28;20512;-61
2024/01/09 07:46:17;;;;;;;35.85;17.55;;;-2.40;80.00;;;;;;5025983;28;20061;-61
2024/01/09 07:48:43;;;;;;;35.13;16.50;;;-2.40;80.00;;;;;;5026883;28;20045;-61
2024/01/09 07:51:09;;;;;;;36.53;17.73;;;-2.40;80.90;;;;;;5030353;28;20109;-61
2024/01/09 07:53:34;;;;;;;36.90;16.55;;;-2.40;80.00;;;;;;5026506;28;20057;-60
2024/01/09 07:56:00;;;;;;;33.47;16.23;;;-2.40;80.20;;;;;;5022523;28;20573;-62
2024/01/09 07:58:26;;;;;;;33.40;16.35;;;-2.40;80.00;;;;;;5031120;28;20046;-63
2024/01/09 08:00:51;;;;;;;34.03;17.20;;;-2.50;80.00;;;;;;5025962;28;20041;-62
2024/01/09 08:03:17;;;;;;;35.67;16.38;;;-2.50;80.00;;;;;;5030675;28;20029;-63
2024/01/09 08:05:43;;;;;;;35.22;17.45;;;-2.50;80.00;;;;;;5032226;28;20041;-63
2024/01/09 08:08:08;;;;;;;34.88;17.38;;;-2.50;80.00;;;;;;5027300;28;20030;-58
2024/01/09 08:10:34;;;;;;;35.08;17.13;;;-2.50;80.10;;;;;;5028408;28;20122;-62
2024/01/09 08:13:00;;;;;;;32.72;16.35;;;-2.50;79.90;;;;;;5029786;28;20034;-63
2024/01/09 08:15:26;;;;;;;35.38;17.38;;;-2.50;80.00;;;;;;5033912;28;20037;-63
2024/01/09 08:17:52;;;;;;;36.65;17.42;;;-2.50;80.10;;;;;;5036268;28;20049;-63
2024/01/09 08:20:18;;;;;;;33.22;16.85;;;-2.50;80.40;;;;;;5031846;28;20048;-61
2024/01/09 08:22:43;;;;;;;34.47;17.17;;;-2.50;80.00;;;;;;5027537;28;20037;-62
2024/01/09 08:25:09;;;;;;;33.97;17.08;;;-2.50;80.10;;;;;;5026231;28;20160;-63
2024/01/09 08:27:34;;;;;;;33.92;17.38;;;-2.50;80.00;;;;;;5030278;28;20041;-62
2024/01/09 08:30:01;;;;;;;39.75;18.85;;;-2.50;80.00;;;;;;5024718;28;20029;-63
2024/01/09 08:32:26;;;;;;;32.55;16.20;;;-2.50;79.90;;;;;;5026431;28;20045;-58
2024/01/09 08:34:52;;;;;;;36.53;17.48;;;-2.50;80.20;;;;;;5027924;28;20382;-60
2024/01/09 08:37:18;;;;;;;31.50;16.48;;;-2.60;80.00;;;;;;5034073;28;20069;-61
2024/01/09 08:39:43;;;;;;;38.95;17.40;;;-2.60;80.00;;;;;;5028082;28;20420;-61
2024/01/09 08:42:09;;;;;;;34.95;17.10;;;-2.60;80.00;;;;;;5028817;28;20037;-61
2024/01/09 08:44:34;;;;;;;33.75;16.95;;;-2.60;79.90;;;;;;5026193;28;20096;-62
2024/01/09 08:47:00;;;;;;;32.47;16.10;;;-2.60;79.90;;;;;;5025315;28;20045;-60
2024/01/09 08:49:27;;;;;;;32.60;17.00;;;-2.60;80.00;;;;;;5029895;28;20037;-62
2024/01/09 08:51:52;;;;;;;36.65;17.23;;;-2.60;80.10;;;;;;5029026;28;20085;-60
2024/01/09 08:54:18;;;;;;;36.20;17.30;;;-2.60;80.00;;;;;;5024930;28;20034;-61
2024/01/09 08:56:44;;;;;;;35.20;17.60;;;-2.60;79.90;;;;;;5030858;28;20033;-62
2024/01/09 08:59:10;;;;;;;38.17;17.60;;;-2.60;79.90;;;;;;5028331;28;20046;-60
2024/01/09 09:01:36;;;;;;;35.13;17.23;;;-2.60;80.00;;;;;;5027021;28;20042;-60
2024/01/09 09:04:02;;;;;;;35.15;17.25;;;-2.60;80.20;;;;;;5031281;28;20043;-61
2024/01/09 09:06:28;;;;;;;35.10;16.98;;;-2.60;80.30;;;;;;5029977;28;20042;-62
2024/01/09 09:08:54;;;;;;;33.38;16.98;;;-2.50;80.20;;;;;;5025149;28;20030;-61
2024/01/09 09:11:20;;;;;;;34.00;16.88;;;-2.50;80.30;;;;;;5024488;28;20029;-61
2024/01/09 09:13:46;;;;;;;32.08;15.65;;;-2.50;80.20;;;;;;5027365;28;20040;-60
2024/01/09 09:16:13;;;;;;;36.78;17.63;;;-2.50;80.10;;;;;;5025721;28;20416;-62
2024/01/09 09:18:39;;;;;;;35.05;16.90;;;-2.50;80.10;;;;;;5023565;28;20127;-60
2024/01/09 09:21:05;;;;;;;33.63;16.55;;;-2.50;80.00;;;;;;5029456;28;20497;-61
2024/01/09 09:23:31;;;;;;;35.47;17.48;;;-2.40;80.00;;;;;;5027245;28;20088;-62
2024/01/09 09:25:56;;;;;;;34.67;17.25;;;-2.50;79.90;;;;;;5030417;28;20032;-63
2024/01/09 09:28:22;;;;;;;35.83;17.35;;;-2.50;79.90;;;;;;5023249;28;20493;-63
2024/01/09 09:30:48;;;;;;;37.17;17.50;;;-2.50;79.70;;;;;;5027122;28;20554;-62
2024/01/09 09:33:13;;;;;;;36.33;17.20;;;-2.50;79.80;;;;;;5015871;28;20044;-61
2024/01/09 09:35:39;;;;;;;34.38;17.25;;;-2.50;79.90;;;;;;5026790;28;20084;-63
2024/01/09 09:38:04;;;;;;;37.83;17.10;;;-2.50;79.90;;;;;;5027085;28;20057;-61
2024/01/09 09:40:30;;;;;;;36.45;17.15;;;-2.50;79.80;;;;;;5029263;28;20405;-60
2024/01/09 09:43:00;;;;;;;43.33;20.38;;;-2.50;79.70;;;;;;5026337;28;20391;-62
2024/01/09 09:45:29;;;;;;;45.05;20.35;;;-2.50;79.80;;;;;;5025212;28;20029;-63
2024/01/09 09:47:55;;;;;;;35.88;17.70;;;-2.50;79.70;;;;;;5023089;28;20030;-62
2024/01/09 09:50:21;;;;;;;32.80;17.50;;;-2.50;79.70;;;;;;5026335;28;20505;-59
2024/01/09 09:52:47;;;;;;;36.40;18.45;;;-2.50;79.70;;;;;;5025780;28;20045;-62
2024/01/09 09:55:13;;;;;;;33.70;17.27;;;-2.40;79.80;;;;;;5028029;28;20034;-61
2024/01/09 09:57:39;;;;;;;37.60;17.95;;;-2.50;79.90;;;;;;5025657;28;20043;-63
2024/01/09 10:00:09;;;;;;;37.10;17.00;;;-2.50;79.80;;;;;;5027961;28;20044;-63
2024/01/09 10:02:46;;;;;;;34.15;17.30;;;-2.40;79.80;;;;;;5027665;28;20049;-62
2024/01/09 10:05:17;;;;;;;32.90;17.05;;;-2.50;79.50;;;;;;5026950;28;20057;-61
2024/01/09 10:07:46;;;;;;;37.55;17.45;;;-2.40;79.70;;;;;;5028784;28;20026;-63
2024/01/09 10:10:13;;;;;;;32.45;17.25;;;-2.40;79.80;;;;;;5025511;28;20034;-62
2024/01/09 10:12:39;;;;;;;34.70;17.08;;;-2.50;79.90;;;;;;5019724;28;20663;-61
2024/01/09 10:15:09;;;;;;;36.83;17.67;;;-2.40;80.70;;;;;;5028633;28;20041;-62
2024/01/09 10:17:39;;;;;;;36.50;17.67;;;-2.40;79.70;;;;;;5027059;28;20128;-62
2024/01/09 10:20:08;;;;;;;35.42;17.25;;;-2.40;79.70;;;;;;5027634;28;20081;-61
2024/01/09 10:22:35;;;;;;;35.70;17.75;;;-2.40;79.60;;;;;;5026730;28;20033;-62
2024/01/09 10:25:19;;;;;;;37.83;16.90;;;-2.40;79.50;;;;;;5024356;28;20033;-63
2024/01/09 10:27:45;;;;;;;34.87;17.80;;;-2.40;79.20;;;;;;5028002;28;20049;-62
2024/01/09 10:30:12;;;;;;;36.08;16.98;;;-2.40;79.50;;;;;;5027691;28;20273;-62
2024/01/09 10:32:39;;;;;;;36.40;17.30;;;-2.40;79.50;;;;;;5020600;28;20052;-63
2024/01/09 10:35:07;;;;;;;35.72;17.48;;;-2.40;79.50;;;;;;5030687;28;20123;-62
2024/01/09 10:37:33;;;;;;;34.05;17.65;;;-2.40;79.60;;;;;;5028298;28;20052;-62
2024/01/09 10:40:00;;;;;;;35.75;17.52;;;-2.30;79.80;;;;;;5028686;28;20029;-62
2024/01/09 10:42:27;;;;;;;34.83;17.27;;;-2.40;79.50;;;;;;5024673;28;20041;-63
2024/01/09 10:44:52;;;;;;;33.92;17.35;;;-2.30;79.50;;;;;;5028540;28;20113;-60
2024/01/09 10:47:20;;;;;;;35.40;18.08;;;-2.30;79.70;;;;;;5023730;28;20160;-61
2024/01/09 10:49:46;;;;;;;33.55;16.88;;;-2.30;79.70;;;;;;5027009;28;20037;-63
2024/01/09 10:52:16;;;;;;;36.10;17.30;;;-2.30;79.70;;;;;;5029720;28;20031;-62
2024/01/09 10:54:43;;;;;;;33.83;16.95;;;-2.30;79.60;;;;;;5025777;28;20022;-63
2024/01/09 10:57:16;;;;;;;36.17;18.67;;;-2.30;79.60;;;;;;5021903;28;20033;-61
2024/01/09 10:59:43;;;;;;;35.83;17.88;;;-2.30;79.50;;;;;;5026368;28;20072;-61
2024/01/09 11:02:25;;;;;;;40.17;17.05;;;-2.30;79.50;;;;;;5028285;28;20045;-61
2024/01/09 11:04:51;;;;;;;36.25;17.85;;;-2.30;79.50;;;;;;5022220;28;20645;-63
2024/01/09 11:07:17;;;;;;;34.63;17.60;;;-2.20;79.70;;;;;;5026282;28;20029;-63
2024/01/09 11:09:44;;;;;;;43.00;18.55;;;-2.20;79.70;;;;;;5021092;28;20479;-62
2024/01/09 11:12:17;;;;;;;33.90;17.45;;;-2.20;79.60;;;;;;5023331;28;20033;-63
2024/01/09 11:14:46;;;;;;;35.45;17.10;;;-2.20;79.70;;;;;;5022486;28;20469;-61
2024/01/09 11:17:13;;;;;;;36.72;17.92;;;-2.20;79.70;;;;;;5023054;28;20029;-63
2024/01/09 11:19:39;;;;;;;33.33;17.05;;;-2.20;79.70;;;;;;5022433;28;20412;-62
2024/01/09 11:22:16;;;;;;;38.10;17.63;;;-2.10;79.70;;;;;;5019108;28;20029;-63
2024/01/09 11:24:45;;;;;;;33.95;17.40;;;-2.20;79.50;;;;;;5023090;28;20029;-61
2024/01/09 11:27:12;;;;;;;34.17;16.98;;;-2.10;79.60;;;;;;5023934;28;20152;-60
2024/01/09 11:29:52;;;;;;;37.80;19.10;;;-2.20;79.70;;;;;;5019650;28;20030;-62
2024/01/09 11:32:19;;;;;;;39.85;17.77;;;-2.10;79.70;;;;;;5020840;28;20950;-62
2024/01/09 11:34:47;;;;;;;36.75;18.75;;;-2.10;79.70;;;;;;5014659;28;20079;-63
2024/01/09 11:37:14;;;;;;;37.30;18.17;;;-2.10;79.70;;;;;;5026092;28;20116;-62
2024/01/09 11:39:40;;;;;;;35.70;17.17;;;-2.10;79.80;;;;;;5026313;28;20036;-61
2024/01/09 11:42:06;;;;;;;34.38;17.92;;;-2.10;79.70;;;;;;5030331;28;20052;-63
2024/01/09 11:44:32;;;;;;;39.40;18.65;;;-2.10;79.50;;;;;;5025710;28;20061;-62
2024/01/09 11:46:57;;;;;;;32.58;17.13;;;-2.10;79.70;;;;;;5029069;28;20021;-62
2024/01/09 11:49:23;;;;;;;36.05;17.35;;;-2.10;79.70;;;;;;5021845;28;20057;-63
2024/01/09 11:51:48;;;;;;;34.50;16.95;;;-2.00;79.80;;;;;;5022492;28;20486;-63
2024/01/09 11:54:14;;;;;;;38.80;18.60;;;-2.00;79.70;;;;;;5023622;28;20029;-61
2024/01/09 11:56:41;;;;;;;34.55;17.55;;;-2.00;79.60;;;;;;5027299;28;20056;-62
2024/01/09 11:59:07;;;;;;;37.05;18.00;;;-2.00;79.50;;;;;;5024704;28;20033;-63
2024/01/09 12:01:33;;;;;;;36.53;17.70;;;-1.90;79.60;;;;;;5026100;28;20034;-63
2024/01/09 12:03:58;;;;;;;35.42;18.00;;;-1.90;79.50;;;;;;5023165;28;20099;-62
2024/01/09 12:06:31;;;;;;;34.22;17.80;;;-1.90;79.50;;;;;;5027812;28;20095;-62
2024/01/09 12:08:57;;;;;;;37.22;18.25;;;-1.90;79.50;;;;;;5023978;28;20038;-62
2024/01/09 12:11:22;;;;;;;34.17;17.35;;;-1.80;79.60;;;;;;5025703;28;20029;-63
2024/01/09 12:14:00;;;;;;;34.13;17.80;;;-1.80;79.30;;;;;;5023579;28;20037;-63
2024/01/09 12:16:29;;;;;;;34.53;17.77;;;-1.80;78.90;;;;;;5029152;28;20064;-63
2024/01/09 12:18:56;;;;;;;33.13;16.63;;;-1.80;79.00;;;;;;5026666;28;20400;-63
2024/01/09 12:21:40;;;;;;;34.70;16.63;;;-1.80;79.20;;;;;;5023316;28;20045;-64
2024/01/09 12:24:06;;;;;;;31.85;16.00;;;-1.70;79.10;;;;;;5025287;28;20037;-64